Airport View

Enter AWOS ICAO identifier for current METAR.

ex. KFNL

KCTJ 270055Z AUTO 00000KT 10SM OVC060 07/04 A3006 RMK AO2 T00710040

27 Jan 2020 01:05

Frequency: 118.175

Phone: 770-214-9667

Other Area AWOS: KPUJ - KCCO - KFTY - KVPC

TAF KFTY 262333Z 2700/2724 00000KT P6SM OVC070 FM270800 23003KT 6SM -SHRA OVC025 FM271200 00000KT P6SM VCSH BKN008 FM271600 27006KT P6SM BKN010 FM271900 28008KT P6SM BKN035 FM272200 30009KT P6SM SCT060